createdAt,value
2023-04-17T00:01:13.672Z,12.80
2023-04-17T00:03:41.417Z,12.80
2023-04-17T00:06:09.077Z,12.84
2023-04-17T00:08:36.643Z,12.88
2023-04-17T00:11:07.846Z,12.90
2023-04-17T00:13:37.057Z,12.89
2023-04-17T00:16:04.755Z,12.88
2023-04-17T00:18:32.362Z,12.84
2023-04-17T00:21:02.277Z,12.78
2023-04-17T00:23:29.856Z,12.77
2023-04-17T00:25:57.412Z,12.74
2023-04-17T00:28:25.244Z,12.65
2023-04-17T00:30:52.884Z,12.61
2023-04-17T00:33:20.503Z,12.56
2023-04-17T00:35:48.193Z,12.50
2023-04-17T00:38:18.187Z,12.50
2023-04-17T00:40:46.343Z,12.53
2023-04-17T00:43:14.111Z,12.52
2023-04-17T00:45:42.727Z,12.44
2023-04-17T00:48:10.834Z,12.39
2023-04-17T00:50:39.037Z,12.45
2023-04-17T00:53:06.802Z,12.43
2023-04-17T00:55:36.617Z,12.39
2023-04-17T00:58:04.875Z,12.41
2023-04-17T01:00:32.518Z,12.42
2023-04-17T01:03:00.420Z,12.40
2023-04-17T01:05:31.159Z,12.38
2023-04-17T01:07:58.793Z,12.40
2023-04-17T01:10:26.417Z,12.39
2023-04-17T01:13:04.827Z,12.36
2023-04-17T01:15:32.587Z,12.31
2023-04-17T01:18:00.618Z,12.30
2023-04-17T01:20:31.353Z,12.38
2023-04-17T01:23:00.319Z,12.39
2023-04-17T01:25:29.134Z,12.30
2023-04-17T01:27:56.886Z,12.26
2023-04-17T01:30:27.090Z,12.28
2023-04-17T01:32:56.337Z,12.30
2023-04-17T01:35:24.269Z,12.40
2023-04-17T01:37:52.271Z,12.40
2023-04-17T01:40:22.503Z,12.46
2023-04-17T01:42:50.089Z,12.43
2023-04-17T01:45:17.760Z,12.41
2023-04-17T01:47:45.612Z,12.48
2023-04-17T01:50:13.791Z,12.48
2023-04-17T01:52:41.361Z,12.61
2023-04-17T01:55:09.265Z,12.65
2023-04-17T01:57:39.338Z,12.65
2023-04-17T02:00:09.271Z,12.65
2023-04-17T02:02:37.045Z,12.61
2023-04-17T02:05:04.951Z,12.67
2023-04-17T02:07:32.607Z,12.61
2023-04-17T02:10:00.207Z,12.61
2023-04-17T02:12:29.152Z,12.69
2023-04-17T02:15:00.948Z,12.62
2023-04-17T02:17:32.019Z,12.68
2023-04-17T02:19:59.596Z,12.68
2023-04-17T02:22:27.199Z,12.67
2023-04-17T02:24:54.796Z,12.68
2023-04-17T02:27:22.442Z,12.70
2023-04-17T02:29:50.009Z,12.66
2023-04-17T02:32:20.731Z,12.64
2023-04-17T02:34:48.461Z,12.62
2023-04-17T02:37:16.023Z,12.60
2023-04-17T02:39:46.175Z,12.60
2023-04-17T02:42:13.943Z,12.55
2023-04-17T02:44:41.588Z,12.52
2023-04-17T02:47:09.207Z,12.52
2023-04-17T02:49:39.322Z,12.52
2023-04-17T02:52:06.906Z,12.49
2023-04-17T02:54:34.635Z,12.46
2023-04-17T02:57:03.104Z,12.48
2023-04-17T02:59:30.846Z,12.51
2023-04-17T03:02:04.275Z,12.42
2023-04-17T03:04:35.754Z,12.45
2023-04-17T03:07:04.067Z,12.38
2023-04-17T03:09:31.763Z,12.36
2023-04-17T03:11:59.748Z,12.30
2023-04-17T03:14:27.335Z,12.30
2023-04-17T03:16:55.026Z,12.31
2023-04-17T03:19:25.017Z,12.25
2023-04-17T03:21:52.621Z,12.15
2023-04-17T03:24:20.499Z,11.99
2023-04-17T03:26:48.062Z,11.86
2023-04-17T03:29:15.657Z,11.86
2023-04-17T03:31:43.302Z,11.82
2023-04-17T03:34:11.093Z,11.96
2023-04-17T03:36:38.937Z,11.93
2023-04-17T03:39:08.906Z,11.91
2023-04-17T03:41:38.461Z,11.88
2023-04-17T03:44:06.913Z,11.85
2023-04-17T03:46:34.514Z,11.84
2023-04-17T03:49:02.178Z,11.89
2023-04-17T03:51:29.747Z,11.90
2023-04-17T03:53:57.320Z,11.95
2023-04-17T03:56:27.216Z,11.97
2023-04-17T03:58:54.842Z,12.05
2023-04-17T04:01:28.309Z,12.12
2023-04-17T04:03:56.821Z,12.15
2023-04-17T04:06:24.562Z,12.14
2023-04-17T04:08:54.541Z,12.21
2023-04-17T04:11:24.472Z,12.17
2023-04-17T04:13:52.077Z,12.21
2023-04-17T04:16:22.014Z,12.23
2023-04-17T04:18:51.717Z,12.25
2023-04-17T04:21:19.338Z,12.31
2023-04-17T04:23:46.896Z,12.27
2023-04-17T04:26:14.465Z,12.31
2023-04-17T04:28:42.657Z,12.34
2023-04-17T04:31:10.598Z,12.33
2023-04-17T04:33:38.270Z,12.41
2023-04-17T04:36:08.155Z,12.39
2023-04-17T04:38:35.852Z,12.39
2023-04-17T04:41:06.085Z,12.35
2023-04-17T04:43:34.497Z,12.37
2023-04-17T04:46:02.102Z,12.38
2023-04-17T04:48:30.073Z,12.41
2023-04-17T04:50:57.741Z,12.50
2023-04-17T04:53:25.981Z,12.54
2023-04-17T04:55:53.595Z,12.55
2023-04-17T04:58:26.285Z,12.54
2023-04-17T05:00:56.453Z,12.58
2023-04-17T05:03:24.381Z,12.55
2023-04-17T05:05:52.035Z,12.53
2023-04-17T05:08:21.974Z,12.57
2023-04-17T05:10:52.260Z,12.61
2023-04-17T05:13:19.825Z,12.68
2023-04-17T05:15:47.469Z,12.71
2023-04-17T05:18:15.139Z,12.76
2023-04-17T05:20:45.092Z,12.77
2023-04-17T05:23:14.986Z,12.82
2023-04-17T05:25:42.575Z,12.94
2023-04-17T05:28:13.778Z,13.05
2023-04-17T05:30:43.298Z,13.12
2023-04-17T05:33:11.040Z,13.20
2023-04-17T05:35:41.259Z,13.23
2023-04-17T05:38:08.968Z,13.30
2023-04-17T05:40:36.724Z,13.37
2023-04-17T05:43:12.137Z,13.48
2023-04-17T05:45:42.590Z,13.57
2023-04-17T05:48:12.822Z,13.65
2023-04-17T05:50:40.409Z,13.73
2023-04-17T05:53:08.232Z,13.76
2023-04-17T05:55:38.294Z,13.81
2023-04-17T05:58:22.496Z,13.79
2023-04-17T06:00:52.450Z,13.88
2023-04-17T06:03:23.001Z,13.89
2023-04-17T06:05:51.521Z,13.93
2023-04-17T06:08:19.155Z,13.99
2023-04-17T06:10:46.816Z,13.98
2023-04-17T06:13:16.844Z,14.09
2023-04-17T06:15:44.547Z,14.06
2023-04-17T06:18:16.154Z,14.09
2023-04-17T06:20:43.937Z,14.13
2023-04-17T06:23:11.508Z,14.06
2023-04-17T06:25:42.781Z,14.14
2023-04-17T06:28:12.839Z,14.20
2023-04-17T06:30:40.544Z,14.23
2023-04-17T06:33:08.336Z,14.26
2023-04-17T06:35:36.678Z,14.30
2023-04-17T06:38:04.379Z,14.34
2023-04-17T06:40:32.015Z,14.48
2023-04-17T06:42:59.653Z,14.48
2023-04-17T06:45:27.255Z,14.43
2023-04-17T06:47:54.901Z,14.46
2023-04-17T06:50:24.840Z,14.64
2023-04-17T06:52:54.656Z,14.77
2023-04-17T06:55:24.032Z,14.90
2023-04-17T06:57:54.827Z,14.97
2023-04-17T07:00:25.181Z,15.02
2023-04-17T07:02:52.964Z,15.16
2023-04-17T07:05:20.777Z,15.15
2023-04-17T07:07:50.921Z,15.37
2023-04-17T07:10:21.091Z,15.54
2023-04-17T07:12:48.749Z,15.59
2023-04-17T07:15:19.428Z,15.75
2023-04-17T07:17:47.063Z,16.21
2023-04-17T07:20:14.769Z,16.69
2023-04-17T07:22:43.198Z,17.10
2023-04-17T07:25:10.957Z,17.52
2023-04-17T07:27:39.428Z,18.07
2023-04-17T07:30:09.071Z,18.35
2023-04-17T07:32:37.258Z,18.44
2023-04-17T07:35:05.513Z,18.50
2023-04-17T07:37:33.131Z,18.68
2023-04-17T07:40:04.241Z,18.86
2023-04-17T07:42:31.793Z,17.82
2023-04-17T07:44:59.487Z,17.92
2023-04-17T07:47:32.165Z,18.29
2023-04-17T07:50:02.337Z,18.32
2023-04-17T07:52:32.432Z,18.68
2023-04-17T07:55:04.791Z,19.64
2023-04-17T07:57:32.971Z,20.22
2023-04-17T08:00:00.704Z,20.82
2023-04-17T08:02:29.498Z,21.88
2023-04-17T08:04:57.904Z,22.87
2023-04-17T08:07:25.853Z,21.90
2023-04-17T08:09:53.505Z,23.05
2023-04-17T08:12:28.214Z,23.12
2023-04-17T08:14:56.183Z,22.87
2023-04-17T08:17:26.030Z,24.19
2023-04-17T08:19:54.622Z,24.23
2023-04-17T08:22:24.228Z,23.57
2023-04-17T08:24:54.826Z,24.12
2023-04-17T08:27:22.449Z,24.41
2023-04-17T08:29:50.072Z,25.05
2023-04-17T08:32:17.736Z,25.24
2023-04-17T08:34:45.959Z,25.71
2023-04-17T08:37:17.012Z,26.71
2023-04-17T08:39:44.895Z,26.09
2023-04-17T08:42:17.706Z,26.93
2023-04-17T08:44:46.709Z,25.62
2023-04-17T08:47:14.366Z,26.11
2023-04-17T08:49:45.981Z,26.01
2023-04-17T08:52:16.769Z,26.78
2023-04-17T08:54:49.757Z,27.32
2023-04-17T08:57:18.871Z,26.88
2023-04-17T08:59:47.034Z,27.16
2023-04-17T09:02:14.808Z,26.97
2023-04-17T09:04:44.606Z,25.81
2023-04-17T09:07:14.444Z,25.94
2023-04-17T09:09:58.309Z,26.58
2023-04-17T09:12:27.674Z,25.60
2023-04-17T09:14:55.954Z,26.05
2023-04-17T09:17:23.571Z,25.19
2023-04-17T09:20:12.200Z,24.10
2023-04-17T09:22:43.378Z,24.44
2023-04-17T09:25:23.198Z,25.22
2023-04-17T09:27:51.050Z,25.90
2023-04-17T09:30:19.176Z,24.98
2023-04-17T09:32:46.960Z,26.13
2023-04-17T09:35:26.688Z,26.31
2023-04-17T09:37:55.240Z,26.23
2023-04-17T09:40:26.001Z,25.85
2023-04-17T09:43:00.678Z,26.15
2023-04-17T09:45:36.007Z,26.28
2023-04-17T09:48:16.365Z,24.71
2023-04-17T09:50:44.791Z,25.00
2023-04-17T09:53:13.891Z,25.54
2023-04-17T09:55:43.602Z,25.08
2023-04-17T09:58:12.288Z,24.75
2023-04-17T10:00:42.944Z,24.62
2023-04-17T10:03:10.733Z,23.90
2023-04-17T10:05:39.094Z,23.73
2023-04-17T10:10:37.089Z,22.68
2023-04-17T10:13:13.543Z,22.37
2023-04-17T10:15:41.216Z,22.42
2023-04-17T10:18:24.260Z,21.70
2023-04-17T10:20:55.541Z,21.91
2023-04-17T10:23:36.496Z,21.57
2023-04-17T10:26:26.106Z,21.28
2023-04-17T10:28:58.986Z,21.69
2023-04-17T10:32:04.008Z,21.32
2023-04-17T10:34:42.560Z,20.84
2023-04-17T10:37:15.560Z,20.54
2023-04-17T10:39:52.076Z,20.30
2023-04-17T10:42:21.413Z,19.83
2023-04-17T10:44:50.170Z,19.84
2023-04-17T10:47:23.270Z,19.97
2023-04-17T10:49:52.234Z,19.42
2023-04-17T10:52:35.482Z,19.56
2023-04-17T10:55:23.050Z,19.11
2023-04-17T10:57:58.083Z,19.00
2023-04-17T11:00:53.198Z,19.45
2023-04-17T11:03:26.880Z,19.17
2023-04-17T11:05:55.108Z,19.29
2023-04-17T11:08:23.624Z,19.63
2023-04-17T11:10:55.011Z,19.41
2023-04-17T11:13:23.318Z,19.39
2023-04-17T11:15:52.045Z,19.69
2023-04-17T11:18:22.773Z,19.51
2023-04-17T11:20:53.344Z,19.42
2023-04-17T11:23:21.943Z,19.25
2023-04-17T11:25:49.636Z,19.54
2023-04-17T11:28:23.153Z,19.43
2023-04-17T11:30:50.839Z,19.53
2023-04-17T11:33:21.059Z,19.34
2023-04-17T12:27:19.964Z,19.15
2023-04-17T12:29:47.621Z,19.22
2023-04-17T12:32:19.072Z,19.38
2023-04-17T12:34:47.178Z,19.37
2023-04-17T12:37:14.780Z,19.37
2023-04-17T12:39:42.360Z,19.37
2023-04-17T12:42:10.105Z,19.55
2023-04-17T12:44:37.726Z,19.51
2023-04-17T12:47:05.539Z,19.88
2023-04-17T12:49:33.095Z,19.98
2023-04-17T12:52:03.215Z,20.04
2023-04-17T12:54:31.312Z,20.38
2023-04-17T12:56:58.925Z,20.71
2023-04-17T12:59:26.561Z,20.90
2023-04-17T13:01:54.247Z,21.28
2023-04-17T13:04:22.242Z,21.35
2023-04-17T13:06:49.976Z,21.18
2023-04-17T13:09:18.083Z,21.33
2023-04-17T13:11:46.731Z,21.45
2023-04-17T13:14:16.532Z,21.28
2023-04-17T13:16:44.387Z,20.96
2023-04-17T13:19:12.352Z,20.55
2023-04-17T13:21:40.139Z,19.93
2023-04-17T13:24:09.073Z,19.67
2023-04-17T13:26:37.183Z,19.37
2023-04-17T13:29:04.848Z,19.25
2023-04-17T13:31:32.608Z,18.93
2023-04-17T13:34:02.803Z,18.48
2023-04-17T13:36:32.738Z,18.34
2023-04-17T13:39:00.439Z,18.19
